createdAt,value
2022-08-22T00:01:39.924Z,101728.47
2022-08-22T00:02:54.722Z,101746.19
2022-08-22T00:04:44.728Z,101726.75
2022-08-22T00:07:35.618Z,101722.44
2022-08-22T00:10:51.706Z,101722.44
2022-08-22T00:13:32.246Z,101715.53
2022-08-22T00:16:30.303Z,101729.41
2022-08-22T00:19:02.742Z,101726.84
2022-08-22T00:21:36.704Z,101725.97
2022-08-22T00:24:27.352Z,101725.13
2022-08-22T00:27:04.361Z,101726.00
2022-08-22T00:29:47.437Z,101706.06
2022-08-22T00:32:23.885Z,101726.00
2022-08-22T00:35:02.415Z,101730.34
2022-08-22T00:37:35.720Z,101728.63
2022-08-22T00:40:27.005Z,101720.81
2022-08-22T00:43:31.076Z,101726.88
2022-08-22T00:46:21.489Z,101734.69
2022-08-22T00:48:56.997Z,101727.78
2022-08-22T00:52:08.630Z,101726.03
2022-08-22T00:54:53.683Z,101738.16
2022-08-22T00:57:54.462Z,101730.41
2022-08-22T01:00:27.155Z,101730.41
2022-08-22T01:03:02.667Z,101733.84
2022-08-22T01:05:50.705Z,101734.75
2022-08-22T01:08:50.363Z,101734.72
2022-08-22T01:11:35.359Z,101737.31
2022-08-22T01:14:37.163Z,101729.53
2022-08-22T01:17:34.266Z,101741.69
2022-08-22T01:20:28.520Z,101737.34
2022-08-22T01:23:04.003Z,101745.16
2022-08-22T01:25:46.837Z,101736.50
2022-08-22T01:28:29.427Z,101736.50
2022-08-22T01:34:25.291Z,101740.81
2022-08-22T01:37:30.384Z,101745.16
2022-08-22T01:40:53.428Z,101745.16
2022-08-22T01:43:59.419Z,101741.69
2022-08-22T01:46:28.561Z,101735.63
2022-08-22T01:49:06.351Z,101739.09
2022-08-22T01:52:11.196Z,101733.03
2022-08-22T01:54:55.983Z,101731.28
2022-08-22T01:57:24.464Z,101728.69
2022-08-22T01:59:54.768Z,101734.75
2022-08-22T02:02:27.509Z,101739.09
2022-08-22T02:05:26.237Z,101740.81
2022-08-22T02:08:17.643Z,101739.09
2022-08-22T02:11:05.968Z,101733.00
2022-08-22T02:14:00.202Z,101734.75
2022-08-22T02:16:38.700Z,101736.50
2022-08-22T02:19:14.013Z,101736.50
2022-08-22T02:22:19.198Z,101726.94
2022-08-22T02:25:09.829Z,101713.97
2022-08-22T02:28:01.429Z,101733.03
2022-08-22T02:30:43.943Z,101722.63
2022-08-22T02:33:16.745Z,101730.44
2022-08-22T02:35:59.904Z,101719.16
2022-08-22T02:38:36.397Z,101721.78
2022-08-22T02:41:35.016Z,101721.75
2022-08-22T02:44:22.678Z,101720.88
2022-08-22T02:47:03.674Z,101719.16
2022-08-22T02:49:51.077Z,101720.91
2022-08-22T02:52:50.250Z,101727.84
2022-08-22T02:55:42.305Z,101713.94
2022-08-22T02:58:23.130Z,101715.69
2022-08-22T03:01:30.563Z,101714.84
2022-08-22T03:04:21.967Z,101720.03
2022-08-22T03:07:20.727Z,101716.56
2022-08-22T03:10:10.235Z,101713.94
2022-08-22T03:12:48.987Z,101710.47
2022-08-22T03:15:32.887Z,101713.06
2022-08-22T03:18:24.019Z,101707.03
2022-08-22T03:21:12.309Z,101707.03
2022-08-22T03:24:14.477Z,101675.81
2022-08-22T03:26:50.722Z,101693.16
2022-08-22T03:29:32.404Z,101698.34
2022-08-22T03:32:19.369Z,101694.03
2022-08-22T03:35:05.514Z,101694.88
2022-08-22T03:37:42.848Z,101696.63
2022-08-22T03:40:44.901Z,101690.56
2022-08-22T03:43:23.206Z,101690.53
2022-08-22T03:46:18.718Z,101693.16
2022-08-22T03:48:54.596Z,101689.72
2022-08-22T03:51:48.492Z,101688.81
2022-08-22T03:54:37.171Z,101686.25
2022-08-22T03:57:44.409Z,101687.06
2022-08-22T04:01:06.808Z,101692.28
2022-08-22T04:04:03.033Z,101701.81
2022-08-22T04:06:50.518Z,101690.53
2022-08-22T04:09:50.989Z,101697.47
2022-08-22T04:12:42.764Z,101699.16
2022-08-22T04:15:28.935Z,101687.91
2022-08-22T04:18:29.402Z,101693.09
2022-08-22T04:21:06.166Z,101701.75
2022-08-22T04:23:40.404Z,101684.44
2022-08-22T04:26:15.688Z,101687.06
2022-08-22T04:28:49.294Z,101690.53
2022-08-22T04:31:22.596Z,101690.53
2022-08-22T04:33:57.516Z,101697.47
2022-08-22T04:36:30.243Z,101706.16
2022-08-22T04:39:02.259Z,101707.00
2022-08-22T04:41:48.237Z,101708.75
2022-08-22T04:44:27.247Z,101701.81
2022-08-22T04:47:02.561Z,101694.88
2022-08-22T04:49:35.122Z,101700.97
2022-08-22T04:52:21.820Z,101700.09
2022-08-22T04:55:10.909Z,101701.84
2022-08-22T04:58:01.870Z,101708.78
2022-08-22T05:00:57.002Z,101705.31
2022-08-22T05:03:27.040Z,101699.22
2022-08-22T05:05:55.653Z,101707.03
2022-08-22T05:08:25.920Z,101710.50
2022-08-22T05:10:53.704Z,101711.38
2022-08-22T05:13:39.686Z,101717.44
2022-08-22T05:16:12.753Z,101720.88
2022-08-22T05:18:45.492Z,101720.00
2022-08-22T05:21:14.444Z,101710.47
2022-08-22T05:23:48.366Z,101689.66
2022-08-22T05:26:17.825Z,101712.19
2022-08-22T05:28:52.879Z,101716.50
2022-08-22T05:31:28.896Z,101710.44
2022-08-22T05:34:11.268Z,101719.94
2022-08-22T05:36:45.939Z,101719.97
2022-08-22T05:39:20.339Z,101727.75
2022-08-22T05:41:49.364Z,101739.00
2022-08-22T05:44:23.431Z,101741.59
2022-08-22T05:46:56.274Z,101751.97
2022-08-22T05:49:34.881Z,101738.09
2022-08-22T05:52:39.855Z,101745.88
2022-08-22T05:55:37.985Z,101738.00
2022-08-22T05:58:44.346Z,101733.63
2022-08-22T06:01:38.048Z,101744.88
2022-08-22T06:04:13.727Z,101749.16
2022-08-22T06:06:43.934Z,101753.44
2022-08-22T06:09:22.790Z,101754.25
2022-08-22T06:11:56.320Z,101751.59
2022-08-22T06:14:39.853Z,101748.13
2022-08-22T06:17:12.228Z,101755.00
2022-08-22T06:19:51.286Z,101756.66
2022-08-22T06:22:24.563Z,101754.84
2022-08-22T06:24:54.201Z,101753.94
2022-08-22T06:27:25.956Z,101756.41
2022-08-22T06:30:00.565Z,101752.91
2022-08-22T06:32:59.920Z,101752.00
2022-08-22T06:35:30.372Z,101763.22
2022-08-22T06:38:01.343Z,101758.84
2022-08-22T06:40:29.557Z,101757.22
2022-08-22T06:42:57.891Z,101754.56
2022-08-22T06:45:31.722Z,101758.03
2022-08-22T06:48:07.873Z,101768.47
2022-08-22T06:50:43.631Z,101763.25
2022-08-22T06:53:18.832Z,101755.41
2022-08-22T06:55:53.013Z,101746.44
2022-08-22T06:58:34.231Z,101759.44
2022-08-22T07:01:11.759Z,101764.66
2022-08-22T07:03:43.586Z,101768.09
2022-08-22T07:06:15.967Z,101773.13
2022-08-22T07:08:43.788Z,101767.56
2022-08-22T07:11:27.551Z,101761.09
2022-08-22T07:13:58.593Z,101757.56
2022-08-22T07:16:57.414Z,101760.72
2022-08-22T07:19:23.898Z,101754.97
2022-08-22T07:21:50.510Z,101746.00
2022-08-22T07:24:22.523Z,101748.88
2022-08-22T07:27:05.877Z,101746.63
2022-08-22T07:29:41.403Z,101756.50
2022-08-22T07:32:13.755Z,101745.59
2022-08-22T07:35:10.638Z,101750.94
2022-08-22T07:37:55.486Z,101750.78
2022-08-22T07:40:22.147Z,101744.03
2022-08-22T07:43:09.356Z,101742.47
2022-08-22T07:46:06.545Z,101734.03
2022-08-22T07:48:53.390Z,101738.25
2022-08-22T07:51:34.510Z,101733.25
2022-08-22T07:54:06.796Z,101731.41
2022-08-22T07:57:01.285Z,101710.81
2022-08-22T07:59:30.787Z,101729.81
2022-08-22T08:01:59.949Z,101719.09
2022-08-22T08:04:38.102Z,101721.13
2022-08-22T08:07:09.782Z,101716.00
2022-08-22T08:09:44.602Z,101705.66
2022-08-22T08:12:14.205Z,101708.47
2022-08-22T08:14:44.140Z,101704.31
2022-08-22T08:17:21.585Z,101702.97
2022-08-22T08:19:50.699Z,101693.81
2022-08-22T08:22:23.656Z,101697.63
2022-08-22T08:24:51.540Z,101700.56
2022-08-22T08:27:41.961Z,101697.13
2022-08-22T08:30:16.102Z,101691.56
2022-08-22T08:32:48.828Z,101685.13
2022-08-22T08:35:23.790Z,101692.38
2022-08-22T08:38:07.756Z,101705.69
2022-08-22T08:40:34.181Z,101694.69
2022-08-22T08:43:29.548Z,101695.38
2022-08-22T08:45:59.207Z,101698.16
2022-08-22T08:48:28.953Z,101700.59
2022-08-22T08:51:02.056Z,101701.91
2022-08-22T08:53:57.999Z,101701.13
2022-08-22T08:56:35.461Z,101701.53
2022-08-22T08:59:11.866Z,101706.06
2022-08-22T09:02:23.468Z,101701.56
2022-08-22T09:04:56.170Z,101700.34
2022-08-22T09:07:50.147Z,101695.75
2022-08-22T09:10:36.511Z,101695.19
2022-08-22T09:13:40.821Z,101696.25
2022-08-22T09:16:37.041Z,101681.94
2022-08-22T09:19:34.714Z,101697.88
2022-08-22T09:22:50.704Z,101698.09
2022-08-22T09:25:39.881Z,101700.31
2022-08-22T09:28:10.437Z,101695.03
2022-08-22T09:31:16.935Z,101699.16
2022-08-22T09:34:09.703Z,101690.03
2022-08-22T09:36:41.982Z,101688.75
2022-08-22T09:39:24.528Z,101681.06
2022-08-22T09:42:24.046Z,101673.16
2022-08-22T09:45:00.024Z,101667.91
2022-08-22T09:47:35.112Z,101669.19
2022-08-22T09:50:17.162Z,101671.56
2022-08-22T09:53:07.492Z,101668.09
2022-08-22T09:56:15.524Z,101666.31
2022-08-22T09:58:51.442Z,101672.56
2022-08-22T10:01:32.583Z,101654.78
2022-08-22T10:04:34.408Z,101666.47
2022-08-22T10:07:15.641Z,101654.91
2022-08-22T10:10:04.056Z,101655.75
2022-08-22T10:12:42.635Z,101658.06
2022-08-22T10:15:31.737Z,101647.34
2022-08-22T10:18:27.999Z,101639.78
2022-08-22T10:21:15.846Z,101645.88
2022-08-22T10:24:25.133Z,101645.72
2022-08-22T10:27:01.421Z,101639.84
2022-08-22T10:29:54.960Z,101636.50
2022-08-22T10:32:27.019Z,101626.94
2022-08-22T10:34:59.398Z,101617.16
2022-08-22T10:37:39.582Z,101618.47
2022-08-22T10:40:25.350Z,101615.69
2022-08-22T10:42:57.710Z,101617.81
2022-08-22T10:45:37.284Z,101628.16
2022-08-22T10:48:07.318Z,101621.44
2022-08-22T10:50:50.063Z,101623.69
2022-08-22T10:53:30.229Z,101632.09
2022-08-22T10:56:08.423Z,101622.38
2022-08-22T10:58:41.870Z,101640.06
2022-08-22T11:01:37.450Z,101630.66
2022-08-22T11:04:40.183Z,101634.44
2022-08-22T11:07:36.397Z,101625.91
2022-08-22T11:10:27.339Z,101631.00
2022-08-22T11:13:03.774Z,101635.28
2022-08-22T11:15:48.601Z,101638.53
2022-08-22T11:18:23.946Z,101626.47
2022-08-22T11:21:22.266Z,101613.28
2022-08-22T11:24:06.719Z,101627.44
2022-08-22T11:26:54.076Z,101624.03
2022-08-22T11:29:38.846Z,101622.75
2022-08-22T11:32:34.936Z,101620.19
2022-08-22T11:35:09.214Z,101620.88
2022-08-22T11:38:16.023Z,101621.63
2022-08-22T11:40:52.381Z,101613.38
2022-08-22T11:43:48.321Z,101609.34
2022-08-22T11:46:24.497Z,101605.72
2022-08-22T11:49:10.758Z,101611.19
2022-08-22T11:51:49.638Z,101610.63
2022-08-22T11:54:45.151Z,101606.44
2022-08-22T11:57:22.002Z,101601.09
2022-08-22T12:00:15.627Z,101603.06
2022-08-22T12:02:57.942Z,101608.75
2022-08-22T12:05:32.340Z,101596.16
2022-08-22T12:08:49.322Z,101607.50
2022-08-22T12:11:28.117Z,101606.81
2022-08-22T12:14:02.513Z,101604.16
2022-08-22T12:16:36.139Z,101613.38
2022-08-22T12:19:22.976Z,101603.47
2022-08-22T12:22:08.053Z,101600.31
2022-08-22T12:24:52.225Z,101594.69
2022-08-22T12:27:39.303Z,101604.84
2022-08-22T12:30:32.966Z,101596.94
2022-08-22T12:33:28.059Z,101600.97
2022-08-22T12:36:02.491Z,101585.53
2022-08-22T12:38:49.526Z,101588.81
2022-08-22T12:41:28.053Z,101588.88
2022-08-22T12:44:17.132Z,101587.16
2022-08-22T12:47:02.579Z,101579.78
2022-08-22T12:49:55.015Z,101575.91
2022-08-22T12:52:50.320Z,101575.97
2022-08-22T12:55:55.531Z,101568.50
2022-08-22T12:58:33.114Z,101559.31
2022-08-22T13:01:06.263Z,101564.56
2022-08-22T13:03:50.489Z,101568.56
2022-08-22T13:06:35.255Z,101571.34
2022-08-22T13:09:30.823Z,101559.19
2022-08-22T13:12:06.155Z,101560.19
2022-08-22T13:14:34.056Z,101557.69
2022-08-22T13:17:23.766Z,101552.31
2022-08-22T13:20:04.793Z,101549.22
2022-08-22T13:22:34.954Z,101552.72
2022-08-22T13:25:27.700Z,101554.81
2022-08-22T13:28:01.479Z,101556.44
2022-08-22T13:30:46.521Z,101554.78
2022-08-22T13:33:27.966Z,101555.41
2022-08-22T13:35:58.981Z,101545.00
2022-08-22T13:38:48.214Z,101548.31
2022-08-22T13:41:26.176Z,101536.03
2022-08-22T13:44:08.625Z,101540.75
2022-08-22T13:46:48.199Z,101537.66
2022-08-22T13:49:37.509Z,101521.41
2022-08-22T13:52:29.411Z,101529.94
2022-08-22T13:55:12.420Z,101513.06
2022-08-22T13:57:53.993Z,101518.38
2022-08-22T14:00:32.684Z,101528.63
2022-08-22T14:03:05.612Z,101525.50
2022-08-22T14:05:49.336Z,101520.16
2022-08-22T14:08:25.805Z,101518.44
2022-08-22T14:11:20.956Z,101522.97
2022-08-22T14:13:58.010Z,101521.38
2022-08-22T14:16:24.537Z,101521.75
2022-08-22T14:18:57.220Z,101519.81
2022-08-22T14:21:40.146Z,101515.16
2022-08-22T14:24:19.957Z,101517.19
2022-08-22T14:27:05.293Z,101512.38
2022-08-22T14:29:44.055Z,101508.78
2022-08-22T14:32:26.794Z,101521.31
2022-08-22T14:35:21.649Z,101514.53
2022-08-22T14:37:55.097Z,101503.91
2022-08-22T14:40:30.149Z,101507.75
2022-08-22T14:43:06.331Z,101500.16
2022-08-22T14:45:45.121Z,101510.94
2022-08-22T14:48:30.301Z,101495.31
2022-08-22T14:51:10.072Z,101500.06
2022-08-22T14:53:40.409Z,101496.25
2022-08-22T14:56:27.723Z,101497.31
2022-08-22T14:59:01.547Z,101490.69
2022-08-22T15:01:32.775Z,101497.25
2022-08-22T15:04:02.560Z,101499.50
2022-08-22T15:06:47.738Z,101489.50
2022-08-22T15:09:37.843Z,101494.00
2022-08-22T15:12:39.231Z,101491.84
2022-08-22T15:15:13.096Z,101487.41
2022-08-22T15:17:54.589Z,101488.25
2022-08-22T15:20:35.223Z,101492.25
2022-08-22T15:23:10.244Z,101481.78
2022-08-22T15:25:41.152Z,101488.91
2022-08-22T15:28:14.423Z,101488.63
2022-08-22T15:31:10.481Z,101486.31
2022-08-22T15:33:43.274Z,101479.78
2022-08-22T15:36:21.663Z,101482.53
2022-08-22T15:39:16.393Z,101484.53
2022-08-22T15:41:48.346Z,101482.22
2022-08-22T15:44:32.094Z,101487.00
2022-08-22T15:47:23.733Z,101476.72
2022-08-22T15:49:55.769Z,101467.72
2022-08-22T15:52:31.828Z,101466.41
2022-08-22T15:55:20.667Z,101472.13
2022-08-22T15:58:12.927Z,101470.25
2022-08-22T16:01:02.729Z,101465.78
2022-08-22T16:03:33.321Z,101463.81
2022-08-22T16:06:07.672Z,101455.13
2022-08-22T16:08:36.916Z,101455.13
2022-08-22T16:11:03.362Z,101451.50
2022-08-22T16:13:29.935Z,101450.63
2022-08-22T16:16:11.557Z,101454.34
2022-08-22T16:18:39.344Z,101453.47
2022-08-22T16:21:07.627Z,101450.25
2022-08-22T16:23:46.299Z,101448.84
2022-08-22T16:26:15.679Z,101443.78
2022-08-22T16:29:03.442Z,101447.16
2022-08-22T16:31:34.854Z,101441.13
2022-08-22T16:34:16.939Z,101439.44
2022-08-22T16:37:08.256Z,101444.13
2022-08-22T16:39:45.897Z,101443.66
2022-08-22T16:42:15.714Z,101441.97
2022-08-22T16:44:46.705Z,101434.34
2022-08-22T16:47:38.802Z,101434.59
2022-08-22T16:50:23.057Z,101441.81
2022-08-22T16:52:57.061Z,101451.59
2022-08-22T16:55:29.901Z,101435.97
2022-08-22T16:58:07.093Z,101439.47
2022-08-22T17:00:36.961Z,101436.47
2022-08-22T17:03:32.765Z,101439.19
2022-08-22T17:06:45.339Z,101429.69
2022-08-22T17:09:43.737Z,101429.91
2022-08-22T17:12:30.542Z,101424.03
2022-08-22T17:15:46.211Z,101423.84
2022-08-22T17:18:31.911Z,101424.03
2022-08-22T17:21:11.721Z,101423.22
2022-08-22T17:23:50.177Z,101423.38
2022-08-22T17:26:31.768Z,101412.25
2022-08-22T17:29:01.687Z,101422.81
2022-08-22T17:31:41.121Z,101427.34
2022-08-22T17:34:32.917Z,101427.66
2022-08-22T17:37:26.019Z,101437.59
2022-08-22T17:40:03.317Z,101428.25
2022-08-22T17:42:54.580Z,101427.66
2022-08-22T17:45:40.235Z,101438.31
2022-08-22T17:48:31.943Z,101435.84
2022-08-22T17:51:25.317Z,101435.16
2022-08-22T17:54:01.258Z,101444.84
2022-08-22T17:56:54.027Z,101447.63
2022-08-22T17:59:39.855Z,101446.25
2022-08-22T18:02:17.082Z,101454.25
2022-08-22T18:04:47.582Z,101445.84
2022-08-22T18:07:14.213Z,101451.66
2022-08-22T18:09:56.932Z,101454.28
2022-08-22T18:12:34.360Z,101458.75
2022-08-22T18:15:49.533Z,101455.47
2022-08-22T18:18:29.966Z,101453.22
2022-08-22T18:21:02.454Z,101451.47
2022-08-22T18:23:40.129Z,101453.22
2022-08-22T18:26:39.744Z,101455.41
2022-08-22T18:29:16.822Z,101457.09
2022-08-22T18:32:01.301Z,101447.09
2022-08-22T18:34:44.249Z,101456.22
2022-08-22T18:37:35.876Z,101459.97
2022-08-22T18:40:23.052Z,101465.47
2022-08-22T18:42:54.701Z,101462.19
2022-08-22T18:45:46.044Z,101470.47
2022-08-22T18:48:28.224Z,101457.00
2022-08-22T18:51:23.980Z,101476.19
2022-08-22T18:53:59.026Z,101475.50
2022-08-22T18:56:34.074Z,101478.16
2022-08-22T18:59:24.884Z,101486.41
2022-08-22T19:02:16.892Z,101481.53
2022-08-22T19:05:05.257Z,101484.59
2022-08-22T19:08:02.475Z,101489.09
2022-08-22T19:10:53.887Z,101491.28
2022-08-22T19:13:26.587Z,101498.50
2022-08-22T19:16:05.715Z,101496.19
2022-08-22T19:18:44.872Z,101503.41
2022-08-22T19:21:46.981Z,101503.53
2022-08-22T19:24:19.507Z,101503.75
2022-08-22T19:27:18.184Z,101495.84
2022-08-22T19:29:44.648Z,101499.38
2022-08-22T19:32:46.043Z,101504.00
2022-08-22T19:35:20.505Z,101494.38
2022-08-22T19:38:02.556Z,101499.59
2022-08-22T19:40:51.496Z,101497.22
2022-08-22T19:43:29.996Z,101506.06
2022-08-22T19:45:58.896Z,101509.75
2022-08-22T19:48:54.900Z,101505.56
2022-08-22T19:51:21.409Z,101510.91
2022-08-22T19:53:56.972Z,101504.91
2022-08-22T19:56:31.247Z,101506.88
2022-08-22T19:59:20.443Z,101508.69
2022-08-22T20:02:01.958Z,101503.53
2022-08-22T20:04:39.474Z,101494.94
2022-08-22T20:07:21.279Z,101499.47
2022-08-22T20:10:22.189Z,101497.81
2022-08-22T20:13:18.521Z,101504.91
2022-08-22T20:16:00.257Z,101509.38
2022-08-22T20:18:51.980Z,101506.03
2022-08-22T20:21:41.134Z,101506.06
2022-08-22T20:24:13.752Z,101493.16
2022-08-22T20:27:10.136Z,101498.41
2022-08-22T20:29:37.265Z,101506.19
2022-08-22T20:32:06.152Z,101501.88
2022-08-22T20:34:37.909Z,101494.13
2022-08-22T20:37:31.991Z,101488.91
2022-08-22T20:40:14.742Z,101494.22
2022-08-22T20:43:02.061Z,101497.72
2022-08-22T20:45:47.365Z,101490.78
2022-08-22T20:48:15.435Z,101477.78
2022-08-22T20:50:42.050Z,101494.34
2022-08-22T20:53:16.879Z,101484.91
2022-08-22T20:55:52.417Z,101492.66
2022-08-22T20:58:22.917Z,101490.13
2022-08-22T21:00:53.537Z,101485.91
2022-08-22T21:03:44.490Z,101484.28
2022-08-22T21:06:15.378Z,101480.91
2022-08-22T21:08:44.543Z,101487.94
2022-08-22T21:11:38.921Z,101480.31
2022-08-22T21:14:19.763Z,101489.06
2022-08-22T21:16:46.375Z,101488.31
2022-08-22T21:19:24.225Z,101487.50
2022-08-22T21:21:50.780Z,101487.59
2022-08-22T21:24:17.795Z,101490.28
2022-08-22T21:27:00.932Z,101492.16
2022-08-22T21:29:33.982Z,101494.94
2022-08-22T21:32:15.435Z,101496.78
2022-08-22T21:34:45.529Z,101490.03
2022-08-22T21:37:16.862Z,101490.06
2022-08-22T21:39:49.965Z,101482.38
2022-08-22T21:42:22.426Z,101480.69
2022-08-22T21:45:05.570Z,101480.81
2022-08-22T21:47:37.639Z,101467.78
2022-08-22T21:50:13.165Z,101475.63
2022-08-22T21:52:59.697Z,101475.66
2022-08-22T21:55:35.425Z,101479.97
2022-08-22T21:58:35.594Z,101475.56
2022-08-22T22:01:04.040Z,101479.13
2022-08-22T22:03:37.479Z,101476.56
2022-08-22T22:06:06.128Z,101480.09
2022-08-22T22:08:33.431Z,101484.47
2022-08-22T22:11:06.122Z,101477.63
2022-08-22T22:13:34.998Z,101477.69
2022-08-22T22:16:01.680Z,101476.09
2022-08-22T22:18:33.429Z,101476.94
2022-08-22T22:21:00.327Z,101479.59
2022-08-22T22:23:27.876Z,101471.84
2022-08-22T22:25:57.657Z,101480.53
2022-08-22T22:28:30.100Z,101478.72
2022-08-22T22:30:57.037Z,101470.91
2022-08-22T22:33:26.929Z,101481.31
2022-08-22T22:35:55.896Z,101478.69
2022-08-22T22:38:24.308Z,101478.72
2022-08-22T22:40:52.203Z,101485.69
2022-08-22T22:43:18.923Z,101477.06
2022-08-22T22:45:45.491Z,101482.28
2022-08-22T22:48:12.197Z,101479.75
2022-08-22T22:50:44.708Z,101484.91
2022-08-22T22:53:11.935Z,101476.16
2022-08-22T22:55:59.656Z,101483.94
2022-08-22T22:58:26.486Z,101476.03
2022-08-22T23:00:53.124Z,101479.34
2022-08-22T23:03:19.641Z,101485.25
2022-08-22T23:05:46.171Z,101478.22
2022-08-22T23:08:12.855Z,101479.81
2022-08-22T23:10:39.695Z,101475.44
2022-08-22T23:13:06.560Z,101476.31
2022-08-22T23:15:33.110Z,101471.94
2022-08-22T23:17:59.682Z,101465.94
2022-08-22T23:20:26.305Z,101478.91
2022-08-22T23:22:52.899Z,101479.75
2022-08-22T23:25:19.573Z,101471.91
2022-08-22T23:27:49.591Z,101478.84
2022-08-22T23:30:19.671Z,101477.16
2022-08-22T23:32:46.231Z,101472.78
2022-08-22T23:35:12.844Z,101465.84
2022-08-22T23:37:39.517Z,101472.69
2022-08-22T23:40:08.502Z,101464.84
2022-08-22T23:42:35.425Z,101471.75
2022-08-22T23:45:02.011Z,101463.09
2022-08-22T23:47:28.600Z,101469.06
2022-08-22T23:49:55.104Z,101458.63
2022-08-22T23:52:21.755Z,101464.69
2022-08-22T23:54:48.352Z,101468.97
2022-08-22T23:57:20.951Z,101462.00
2022-08-22T23:59:57.732Z,101463.75
